createdAt,value
2023-11-13T00:00:55.444Z,100.00
2023-11-13T00:03:23.975Z,100.00
2023-11-13T00:05:51.949Z,100.00
2023-11-13T00:08:19.943Z,100.00
2023-11-13T00:10:48.271Z,100.00
2023-11-13T00:13:16.265Z,100.00
2023-11-13T00:15:44.229Z,100.00
2023-11-13T00:18:13.097Z,100.00
2023-11-13T00:20:40.920Z,100.00
2023-11-13T00:23:09.246Z,100.00
2023-11-13T00:25:40.701Z,100.00
2023-11-13T00:28:12.659Z,100.00
2023-11-13T00:30:41.111Z,100.00
2023-11-13T00:33:09.879Z,100.00
2023-11-13T00:35:37.953Z,100.00
2023-11-13T00:38:06.185Z,100.00
2023-11-13T00:40:35.856Z,100.00
2023-11-13T00:43:03.860Z,100.00
2023-11-13T00:45:33.442Z,100.00
2023-11-13T00:48:02.387Z,100.00
2023-11-13T00:50:30.338Z,100.00
2023-11-13T00:52:58.691Z,100.00
2023-11-13T00:55:27.191Z,100.00
2023-11-13T00:57:55.185Z,100.00
2023-11-13T01:00:23.493Z,99.92
2023-11-13T01:02:52.737Z,100.00
2023-11-13T01:05:23.787Z,100.00
2023-11-13T01:07:52.069Z,100.00
2023-11-13T01:10:20.291Z,100.00
2023-11-13T01:12:51.577Z,100.00
2023-11-13T01:15:19.985Z,99.84
2023-11-13T01:17:48.110Z,100.00
2023-11-13T01:20:19.798Z,100.00
2023-11-13T01:22:48.324Z,100.00
2023-11-13T01:25:20.426Z,100.00
2023-11-13T01:27:48.948Z,100.00
2023-11-13T01:30:16.887Z,100.00
2023-11-13T01:32:46.367Z,100.00
2023-11-13T01:35:14.883Z,100.00
2023-11-13T01:37:42.865Z,100.00
2023-11-13T01:40:11.628Z,100.00
2023-11-13T01:42:40.528Z,100.00
2023-11-13T01:45:09.444Z,100.00
2023-11-13T01:47:40.978Z,100.00
2023-11-13T01:50:10.859Z,100.00
2023-11-13T01:52:43.106Z,100.00
2023-11-13T01:55:13.457Z,100.00
2023-11-13T01:57:44.677Z,100.00
2023-11-13T02:00:13.715Z,100.00
2023-11-13T02:02:41.994Z,100.00
2023-11-13T02:05:14.473Z,100.00
2023-11-13T02:07:43.884Z,100.00
2023-11-13T02:10:12.242Z,100.00
2023-11-13T02:12:40.336Z,100.00
2023-11-13T02:15:08.921Z,100.00
2023-11-13T02:17:37.480Z,100.00
2023-11-13T02:20:07.230Z,100.00
2023-11-13T02:22:35.301Z,100.00
2023-11-13T02:25:04.024Z,100.00
2023-11-13T02:27:32.627Z,100.00
2023-11-13T02:30:00.554Z,100.00
2023-11-13T02:32:28.784Z,100.00
2023-11-13T02:34:56.767Z,100.00
2023-11-13T02:37:24.661Z,100.00
2023-11-13T02:39:53.013Z,100.00
2023-11-13T02:42:21.977Z,100.00
2023-11-13T02:44:53.012Z,100.00
2023-11-13T02:47:21.337Z,100.00
2023-11-13T02:49:49.370Z,100.00
2023-11-13T02:52:17.341Z,100.00
2023-11-13T02:54:45.597Z,100.00
2023-11-13T02:57:14.213Z,100.00
2023-11-13T02:59:45.280Z,100.00
2023-11-13T03:02:14.255Z,100.00
2023-11-13T03:04:42.555Z,100.00
2023-11-13T03:07:10.532Z,100.00
2023-11-13T03:09:38.903Z,100.00
2023-11-13T03:12:07.121Z,100.00
2023-11-13T03:14:35.362Z,100.00
2023-11-13T03:17:03.829Z,100.00
2023-11-13T03:19:31.766Z,100.00
2023-11-13T03:21:59.862Z,100.00
2023-11-13T03:24:32.811Z,100.00
2023-11-13T03:27:00.763Z,100.00
2023-11-13T03:29:34.116Z,100.00
2023-11-13T03:32:05.600Z,100.00
2023-11-13T03:34:34.171Z,100.00
2023-11-13T03:37:05.544Z,100.00
2023-11-13T03:39:34.152Z,100.00
2023-11-13T03:42:01.958Z,100.00
2023-11-13T03:44:32.677Z,100.00
2023-11-13T03:47:01.055Z,100.00
2023-11-13T03:49:29.061Z,100.00
2023-11-13T03:51:57.079Z,100.00
2023-11-13T03:54:25.429Z,100.00
2023-11-13T03:56:53.336Z,100.00
2023-11-13T03:59:21.317Z,100.00
2023-11-13T04:01:52.604Z,100.00
2023-11-13T04:04:21.406Z,100.00
2023-11-13T04:06:50.854Z,100.00
2023-11-13T04:09:19.931Z,100.00
2023-11-13T04:11:48.410Z,100.00
2023-11-13T04:14:16.590Z,100.00
2023-11-13T04:16:45.971Z,100.00
2023-11-13T04:19:14.612Z,100.00
2023-11-13T04:21:42.858Z,100.00
2023-11-13T04:24:11.028Z,100.00
2023-11-13T04:26:39.552Z,100.00
2023-11-13T04:29:07.608Z,100.00
2023-11-13T04:31:36.180Z,100.00
2023-11-13T04:34:07.332Z,100.00
2023-11-13T04:36:43.380Z,100.00
2023-11-13T04:39:13.597Z,100.00
2023-11-13T04:41:45.326Z,100.00
2023-11-13T04:44:13.716Z,100.00
2023-11-13T04:46:45.218Z,100.00
2023-11-13T04:49:15.955Z,100.00
2023-11-13T04:51:44.681Z,100.00
2023-11-13T04:54:12.741Z,99.65
2023-11-13T04:56:41.666Z,100.00
2023-11-13T04:59:11.157Z,100.00
2023-11-13T05:01:41.462Z,99.93
2023-11-13T05:04:13.996Z,100.00
2023-11-13T05:06:45.918Z,99.90
2023-11-13T05:09:16.206Z,99.73
2023-11-13T05:11:46.514Z,100.00
2023-11-13T05:14:17.704Z,100.00
2023-11-13T05:16:51.420Z,100.00
2023-11-13T05:19:21.910Z,100.00
2023-11-13T05:21:55.831Z,100.00
2023-11-13T05:24:28.328Z,100.00
2023-11-13T05:26:58.278Z,100.00
2023-11-13T05:29:30.373Z,100.00
2023-11-13T05:32:02.284Z,100.00
2023-11-13T05:34:37.009Z,100.00
2023-11-13T05:37:08.007Z,100.00
2023-11-13T05:39:38.754Z,100.00
2023-11-13T05:42:09.914Z,100.00
2023-11-13T05:44:42.438Z,100.00
2023-11-13T05:47:14.346Z,100.00
2023-11-13T05:49:44.523Z,100.00
2023-11-13T05:52:14.919Z,100.00
2023-11-13T05:54:48.141Z,100.00
2023-11-13T05:57:19.326Z,100.00
2023-11-13T05:59:50.384Z,100.00
2023-11-13T06:02:21.627Z,100.00
2023-11-13T06:04:56.109Z,100.00
2023-11-13T06:07:29.247Z,100.00
2023-11-13T06:10:02.889Z,100.00
2023-11-13T06:12:39.179Z,100.00
2023-11-13T06:15:16.407Z,100.00
2023-11-13T06:17:53.002Z,100.00
2023-11-13T06:20:27.211Z,100.00
2023-11-13T06:22:57.387Z,100.00
2023-11-13T06:25:30.838Z,100.00
2023-11-13T06:28:05.220Z,100.00
2023-11-13T06:30:39.942Z,100.00
2023-11-13T06:33:18.528Z,100.00
2023-11-13T06:35:54.305Z,100.00
2023-11-13T06:38:25.413Z,100.00
2023-11-13T06:40:57.080Z,100.00
2023-11-13T06:43:27.189Z,100.00
2023-11-13T06:46:06.072Z,100.00
2023-11-13T06:48:38.690Z,100.00
2023-11-13T06:51:19.348Z,99.76
2023-11-13T06:53:54.840Z,100.00
2023-11-13T06:56:32.183Z,100.00
2023-11-13T06:59:03.616Z,100.00
2023-11-13T07:01:46.199Z,100.00
2023-11-13T07:04:26.006Z,100.00
2023-11-13T07:07:04.675Z,100.00
2023-11-13T07:09:43.961Z,100.00
2023-11-13T07:12:24.724Z,100.00
2023-11-13T07:14:57.301Z,100.00
2023-11-13T07:17:38.379Z,100.00
2023-11-13T07:20:15.559Z,100.00
2023-11-13T07:22:55.352Z,100.00
2023-11-13T07:25:36.218Z,99.51
2023-11-13T07:28:17.133Z,98.19
2023-11-13T07:30:49.182Z,96.96
2023-11-13T07:33:32.444Z,97.29
2023-11-13T07:36:13.108Z,97.55
2023-11-13T07:38:54.684Z,96.88
2023-11-13T07:41:38.406Z,96.78
2023-11-13T07:44:24.489Z,97.58
2023-11-13T07:47:02.812Z,97.77
2023-11-13T07:49:39.133Z,97.48
2023-11-13T07:52:13.767Z,96.80
2023-11-13T07:54:54.567Z,97.33
2023-11-13T07:57:38.306Z,97.97
2023-11-13T08:00:20.344Z,97.54
2023-11-13T08:02:59.565Z,98.79
2023-11-13T08:05:38.274Z,98.41
2023-11-13T08:08:14.577Z,98.21
2023-11-13T08:10:56.634Z,98.63
2023-11-13T08:13:34.215Z,98.77
2023-11-13T08:16:12.087Z,99.19
2023-11-13T08:18:53.255Z,99.04
2023-11-13T08:21:25.335Z,99.45
2023-11-13T08:24:03.835Z,99.08
2023-11-13T08:26:38.225Z,97.91
2023-11-13T08:29:16.887Z,97.44
2023-11-13T08:31:58.126Z,95.41
2023-11-13T08:34:49.044Z,95.71
2023-11-13T08:37:29.514Z,95.50
2023-11-13T08:40:10.877Z,93.12
2023-11-13T08:42:46.783Z,94.10
2023-11-13T08:45:29.160Z,92.57
2023-11-13T08:48:05.044Z,91.95
2023-11-13T08:50:53.221Z,93.53
2023-11-13T08:53:30.608Z,92.33
2023-11-13T08:56:03.012Z,93.11
2023-11-13T08:58:42.126Z,92.33
2023-11-13T09:01:16.981Z,93.54
2023-11-13T09:03:53.983Z,95.09
2023-11-13T09:06:44.466Z,94.11
2023-11-13T09:09:26.980Z,93.31
2023-11-13T09:12:18.439Z,93.60
2023-11-13T09:14:58.772Z,92.33
2023-11-13T09:17:48.259Z,95.13
2023-11-13T09:20:34.622Z,95.22
2023-11-13T09:23:18.690Z,94.49
2023-11-13T09:26:00.231Z,93.03
2023-11-13T09:28:35.389Z,93.84
2023-11-13T09:31:15.859Z,91.99
2023-11-13T09:34:02.458Z,91.22
2023-11-13T09:36:41.234Z,91.36
2023-11-13T09:39:13.245Z,91.11
2023-11-13T09:41:55.633Z,90.67
2023-11-13T09:44:50.154Z,91.59
2023-11-13T09:47:43.000Z,90.77
2023-11-13T09:50:22.844Z,90.52
2023-11-13T09:53:01.888Z,91.56
2023-11-13T09:55:50.048Z,91.58
2023-11-13T09:58:31.794Z,91.50
2023-11-13T10:01:21.344Z,90.52
2023-11-13T10:04:14.698Z,91.25
2023-11-13T10:06:58.516Z,92.59
2023-11-13T10:09:41.325Z,92.26
2023-11-13T10:12:17.299Z,91.79
2023-11-13T10:15:23.776Z,91.67
2023-11-13T10:18:01.066Z,90.67
2023-11-13T10:20:55.370Z,91.22
2023-11-13T10:23:37.390Z,90.79
2023-11-13T10:26:19.671Z,91.13
2023-11-13T10:29:01.812Z,89.36
2023-11-13T10:31:57.467Z,89.71
2023-11-13T10:34:54.075Z,89.80
2023-11-13T10:37:40.311Z,90.38
2023-11-13T10:40:23.169Z,91.17
2023-11-13T10:43:10.490Z,88.98
2023-11-13T10:45:57.704Z,89.62
2023-11-13T10:48:46.714Z,89.81
2023-11-13T10:51:25.262Z,89.79
2023-11-13T10:54:10.324Z,88.17
2023-11-13T10:56:54.690Z,87.36
2023-11-13T10:59:36.020Z,86.70
2023-11-13T11:02:38.971Z,87.69
2023-11-13T11:05:30.633Z,86.94
2023-11-13T11:08:11.592Z,86.35
2023-11-13T11:11:03.454Z,84.42
2023-11-13T11:14:02.919Z,86.16
2023-11-13T11:16:54.269Z,86.23
2023-11-13T11:19:50.444Z,86.79
2023-11-13T11:22:32.746Z,86.81
2023-11-13T11:25:22.446Z,87.83
2023-11-13T11:28:09.650Z,89.04
2023-11-13T11:30:46.818Z,89.54
2023-11-13T11:33:23.782Z,91.01
2023-11-13T11:35:59.995Z,92.09
2023-11-13T11:38:44.540Z,93.83
2023-11-13T11:41:47.437Z,93.84
2023-11-13T11:44:32.259Z,94.31
2023-11-13T11:47:11.546Z,94.42
2023-11-13T11:49:59.467Z,92.48
2023-11-13T11:53:00.863Z,92.70
2023-11-13T11:55:49.302Z,91.99
2023-11-13T11:58:29.347Z,92.91
2023-11-13T12:01:17.162Z,93.19
2023-11-13T12:03:54.024Z,93.08
2023-11-13T12:06:39.163Z,94.40
2023-11-13T12:09:28.572Z,95.42
2023-11-13T12:12:11.156Z,96.45
2023-11-13T12:15:02.145Z,96.99
2023-11-13T12:17:45.548Z,97.44
2023-11-13T12:20:28.887Z,96.14
2023-11-13T12:23:08.004Z,95.70
2023-11-13T12:25:53.458Z,95.23
2023-11-13T12:28:39.002Z,95.05
2023-11-13T12:31:33.487Z,93.81
2023-11-13T12:34:15.504Z,93.01
2023-11-13T12:36:54.802Z,92.52
2023-11-13T12:39:28.302Z,91.83
2023-11-13T12:42:09.420Z,91.66
2023-11-13T12:45:07.498Z,91.17
2023-11-13T12:48:01.679Z,90.73
2023-11-13T12:50:46.381Z,91.76
2023-11-13T12:53:22.380Z,90.36
2023-11-13T12:56:05.809Z,90.85
2023-11-13T12:58:55.429Z,89.56
2023-11-13T13:01:40.920Z,88.81
2023-11-13T13:04:27.751Z,88.97
2023-11-13T13:07:18.001Z,88.10
2023-11-13T13:09:59.409Z,87.20
2023-11-13T13:12:44.111Z,87.01
2023-11-13T13:15:25.302Z,85.90
2023-11-13T13:18:12.166Z,86.96
2023-11-13T13:20:55.893Z,86.08
2023-11-13T13:23:36.410Z,86.93
2023-11-13T13:26:27.419Z,86.85
2023-11-13T13:29:10.428Z,86.64
2023-11-13T13:31:53.867Z,87.88
2023-11-13T13:34:30.566Z,87.74
2023-11-13T13:37:09.811Z,88.65
2023-11-13T13:39:51.563Z,88.88
2023-11-13T13:42:44.996Z,88.52
2023-11-13T13:45:24.053Z,89.10
2023-11-13T13:48:08.586Z,88.45
2023-11-13T13:50:44.360Z,89.32
2023-11-13T13:53:25.423Z,90.39
2023-11-13T13:56:06.727Z,89.25
2023-11-13T13:58:49.336Z,89.81
2023-11-13T14:01:29.339Z,90.29
2023-11-13T14:07:00.545Z,90.61
2023-11-13T14:09:36.049Z,90.22
2023-11-13T14:12:22.300Z,91.25
2023-11-13T14:15:01.025Z,90.86
2023-11-13T14:17:41.481Z,91.36
2023-11-13T14:20:20.824Z,91.10
2023-11-13T14:23:04.097Z,91.13
2023-11-13T14:25:39.221Z,90.87
2023-11-13T14:28:19.993Z,90.95
2023-11-13T14:30:58.492Z,91.62
2023-11-13T14:33:41.822Z,92.60
2023-11-13T14:36:33.972Z,92.59
2023-11-13T14:39:15.477Z,93.51
2023-11-13T14:41:57.370Z,93.89
2023-11-13T14:44:32.410Z,93.29
2023-11-13T14:47:20.252Z,94.10
2023-11-13T14:49:58.815Z,95.50
2023-11-13T14:52:37.447Z,95.61
2023-11-13T14:55:15.193Z,95.40
2023-11-13T14:57:58.741Z,97.17
2023-11-13T15:00:46.095Z,96.92
2023-11-13T15:03:29.213Z,98.26
2023-11-13T15:06:02.660Z,98.74
2023-11-13T15:08:40.499Z,98.06
2023-11-13T15:11:19.541Z,97.38
2023-11-13T15:14:02.416Z,98.07
2023-11-13T15:16:44.367Z,97.54
2023-11-13T15:19:43.936Z,97.94
2023-11-13T15:22:36.747Z,99.50
2023-11-13T15:25:25.035Z,100.00
2023-11-13T15:28:11.811Z,100.00
2023-11-13T15:30:52.344Z,100.00
2023-11-13T15:33:37.230Z,100.00
2023-11-13T15:36:13.403Z,100.00
2023-11-13T15:38:50.819Z,100.00
2023-11-13T15:41:27.007Z,100.00
2023-11-13T15:43:58.757Z,100.00
2023-11-13T15:46:43.434Z,100.00
2023-11-13T15:49:32.136Z,100.00
2023-11-13T15:52:14.260Z,100.00
2023-11-13T15:54:54.844Z,100.00
2023-11-13T15:57:36.944Z,100.00
2023-11-13T16:00:18.904Z,100.00
2023-11-13T16:03:08.107Z,100.00
2023-11-13T16:05:49.850Z,100.00
2023-11-13T16:08:39.266Z,100.00
2023-11-13T16:11:12.006Z,100.00
2023-11-13T16:14:00.686Z,100.00
2023-11-13T16:16:46.788Z,100.00
2023-11-13T16:19:30.823Z,100.00
2023-11-13T16:22:15.358Z,100.00
2023-11-13T16:24:54.359Z,100.00
2023-11-13T16:27:42.515Z,100.00
2023-11-13T16:30:30.265Z,100.00
2023-11-13T16:33:13.098Z,100.00
2023-11-13T16:36:08.705Z,100.00
2023-11-13T16:38:46.880Z,100.00
2023-11-13T16:41:38.294Z,100.00
2023-11-13T16:44:17.238Z,100.00
2023-11-13T16:46:58.601Z,100.00
2023-11-13T16:49:36.717Z,100.00
2023-11-13T16:52:18.438Z,100.00
2023-11-13T16:54:58.678Z,100.00
2023-11-13T16:57:38.117Z,100.00
2023-11-13T17:00:15.222Z,100.00
2023-11-13T17:02:54.454Z,100.00
2023-11-13T17:05:36.904Z,100.00
2023-11-13T17:08:14.848Z,100.00
2023-11-13T17:10:56.971Z,100.00
2023-11-13T17:13:35.752Z,100.00
2023-11-13T17:16:12.217Z,100.00
2023-11-13T17:18:53.416Z,100.00
2023-11-13T17:21:24.604Z,100.00
2023-11-13T17:24:15.316Z,100.00
2023-11-13T17:27:07.430Z,100.00
2023-11-13T17:29:44.611Z,100.00
2023-11-13T17:32:27.083Z,100.00
2023-11-13T17:35:13.794Z,100.00
2023-11-13T17:37:54.452Z,100.00
2023-11-13T17:40:32.566Z,98.92
2023-11-13T17:43:16.814Z,98.62
2023-11-13T17:46:00.810Z,97.89
2023-11-13T17:48:45.750Z,96.93
2023-11-13T17:51:33.656Z,96.88
2023-11-13T17:54:08.420Z,97.14
2023-11-13T17:56:51.404Z,96.28
2023-11-13T17:59:31.016Z,96.68
2023-11-13T18:02:04.726Z,95.18
2023-11-13T18:04:48.972Z,95.85
2023-11-13T18:07:38.900Z,96.08
2023-11-13T18:10:19.197Z,94.91
2023-11-13T18:13:01.005Z,95.34
2023-11-13T18:15:45.237Z,95.08
2023-11-13T18:18:23.886Z,95.31
2023-11-13T18:21:07.534Z,95.10
2023-11-13T18:23:47.397Z,95.32
2023-11-13T18:26:30.899Z,94.62
2023-11-13T18:29:09.446Z,95.47
2023-11-13T18:31:47.819Z,95.79
2023-11-13T18:34:28.147Z,94.86
2023-11-13T18:37:10.006Z,94.25
2023-11-13T18:39:57.976Z,93.99
2023-11-13T18:42:41.442Z,94.56
2023-11-13T18:45:21.381Z,95.07
2023-11-13T18:48:03.706Z,95.09
2023-11-13T18:50:36.491Z,95.18
2023-11-13T18:53:10.371Z,95.42
2023-11-13T18:55:50.894Z,95.07
2023-11-13T18:58:34.329Z,94.79
2023-11-13T19:01:14.928Z,94.30
2023-11-13T19:04:02.427Z,94.40
2023-11-13T19:06:43.611Z,93.83
2023-11-13T19:09:27.198Z,93.71
2023-11-13T19:12:05.211Z,93.33
2023-11-13T19:14:43.991Z,93.36
2023-11-13T19:17:19.395Z,93.28
2023-11-13T19:20:15.249Z,92.63
2023-11-13T19:23:10.673Z,92.71
2023-11-13T19:25:43.160Z,92.18
2023-11-13T19:28:18.972Z,92.20
2023-11-13T19:31:03.503Z,92.23
2023-11-13T19:33:42.492Z,92.03
2023-11-13T19:36:20.495Z,91.48
2023-11-13T19:39:10.209Z,91.76
2023-11-13T19:41:48.097Z,91.91
2023-11-13T19:44:22.224Z,91.64
2023-11-13T19:46:52.900Z,91.13
2023-11-13T19:49:28.406Z,90.73
2023-11-13T19:52:01.357Z,90.58
2023-11-13T19:54:36.089Z,90.54
2023-11-13T19:57:09.722Z,90.50
2023-11-13T19:59:49.204Z,90.09
2023-11-13T20:02:19.690Z,90.32
2023-11-13T20:04:53.927Z,90.19
2023-11-13T20:07:25.378Z,89.73
2023-11-13T20:09:59.093Z,90.09
2023-11-13T20:12:30.985Z,89.61
2023-11-13T20:15:04.575Z,90.74
2023-11-13T20:17:35.611Z,90.14
2023-11-13T20:20:12.836Z,90.32
2023-11-13T20:22:43.478Z,90.52
2023-11-13T20:25:15.624Z,90.61
2023-11-13T20:27:49.469Z,90.58
2023-11-13T20:30:23.096Z,91.15
2023-11-13T20:32:55.236Z,91.30
2023-11-13T20:35:28.626Z,91.42
2023-11-13T20:38:00.721Z,90.82
2023-11-13T20:40:32.484Z,90.97
2023-11-13T20:43:03.476Z,91.35
2023-11-13T20:45:34.921Z,91.49
2023-11-13T20:48:05.220Z,90.92
2023-11-13T20:50:35.612Z,90.62
2023-11-13T20:53:04.586Z,91.02
2023-11-13T20:55:33.344Z,91.19
2023-11-13T20:58:07.371Z,91.22
2023-11-13T21:00:36.016Z,91.07
2023-11-13T21:06:02.281Z,91.48
2023-11-13T21:08:36.877Z,91.68
2023-11-13T21:11:06.786Z,92.34
2023-11-13T21:13:35.797Z,91.77
2023-11-13T21:16:03.962Z,91.91
2023-11-13T21:18:33.168Z,91.98
2023-11-13T21:21:01.713Z,92.40
2023-11-13T21:23:34.082Z,91.58
2023-11-13T21:26:05.689Z,91.94
2023-11-13T21:28:35.269Z,91.41
2023-11-13T21:31:04.087Z,91.56
2023-11-13T21:33:31.886Z,91.85
2023-11-13T21:36:02.887Z,93.23
2023-11-13T21:38:31.466Z,92.74
2023-11-13T21:40:59.610Z,93.43
2023-11-13T21:43:28.496Z,93.73
2023-11-13T21:45:56.782Z,92.56
2023-11-13T21:48:25.175Z,92.75
2023-11-13T21:50:54.040Z,92.48
2023-11-13T21:53:25.400Z,92.39
2023-11-13T21:55:55.428Z,92.01
2023-11-13T21:58:23.883Z,92.11
2023-11-13T22:00:51.936Z,92.19
2023-11-13T22:03:23.176Z,91.83
2023-11-13T22:05:51.117Z,92.41
2023-11-13T22:08:21.819Z,93.12
2023-11-13T22:10:50.366Z,92.58
2023-11-13T22:13:18.361Z,93.79
2023-11-13T22:15:46.193Z,93.44
2023-11-13T22:18:15.247Z,93.98
2023-11-13T22:20:43.148Z,94.51
2023-11-13T22:23:12.031Z,93.88
2023-11-13T22:25:43.153Z,93.51
2023-11-13T22:28:10.964Z,93.93
2023-11-13T22:30:42.005Z,93.54
2023-11-13T22:33:10.188Z,93.92
2023-11-13T22:35:38.156Z,93.51
2023-11-13T22:38:06.094Z,93.06
2023-11-13T22:40:34.483Z,92.90
2023-11-13T22:43:05.381Z,92.95
2023-11-13T22:45:33.534Z,93.20
2023-11-13T22:48:01.866Z,92.84
2023-11-13T22:50:29.795Z,92.45
2023-11-13T22:52:58.046Z,92.29
2023-11-13T22:55:26.302Z,92.83
2023-11-13T22:57:57.072Z,92.40
2023-11-13T23:00:38.047Z,92.62
2023-11-13T23:03:11.764Z,92.14
2023-11-13T23:05:39.706Z,92.54
2023-11-13T23:08:08.009Z,91.80
2023-11-13T23:10:36.066Z,92.08
2023-11-13T23:13:04.283Z,92.11
2023-11-13T23:15:33.248Z,91.22
2023-11-13T23:18:04.496Z,91.53
2023-11-13T23:20:32.787Z,91.10
2023-11-13T23:23:00.686Z,92.08
2023-11-13T23:25:28.689Z,91.16
2023-11-13T23:27:57.387Z,90.70
2023-11-13T23:30:26.144Z,91.10
2023-11-13T23:32:54.109Z,90.75
2023-11-13T23:35:22.618Z,90.47
2023-11-13T23:37:50.635Z,90.53
2023-11-13T23:40:19.765Z,90.93
2023-11-13T23:42:47.970Z,90.72
2023-11-13T23:45:17.325Z,91.32
2023-11-13T23:47:45.750Z,90.02
2023-11-13T23:50:14.041Z,90.61
2023-11-13T23:52:43.915Z,89.80
2023-11-13T23:55:11.994Z,90.56
2023-11-13T23:57:40.300Z,90.31
